Time;durP1;ratioP1;P1;durP2;ratioP2;P2;SDS_P1;SDS_P2;PMS_P1;PMS_P2;Temp;Humidity;BMP_temperature;BMP_pressure;BME280_temperature;BME280_humidity;BME280_pressure;Samples;Min_cycle;Max_cycle;Signal;HPM_P1;HPM_P2
2023/12/30 00:00:56;;;;;;;;;;;;;;;19.96;51.96;101214.47;7395402;19;1696;-52
2023/12/30 00:03:28;;;;;;;;;;;;;;;20.16;51.74;101212.78;7396344;19;1761;-52
2023/12/30 00:05:56;;;;;;;;;;;;;;;20.13;51.65;101206.81;7395764;19;1125;-51
2023/12/30 00:08:25;;;;;;;;;;;;;;;20.11;51.56;101192.66;7395086;19;1978;-51
2023/12/30 00:10:53;;;;;;;;;;;;;;;20.10;51.77;101201.72;7395964;19;1742;-51
2023/12/30 00:13:21;;;;;;;;;;;;;;;19.95;52.04;101202.03;7394740;19;1846;-51
2023/12/30 00:15:50;;;;;;;;;;;;;;;19.92;52.00;101213.03;7395017;19;1377;-51
2023/12/30 00:18:18;;;;;;;;;;;;;;;19.41;53.54;101213.72;7394276;19;1120;-51
2023/12/30 00:20:49;;;;;;;;;;;;;;;19.13;53.89;101215.16;7394065;19;1709;-51
2023/12/30 00:23:18;;;;;;;;;;;;;;;19.11;54.30;101206.38;7393600;19;1822;-51
2023/12/30 00:25:46;;;;;;;;;;;;;;;19.05;54.44;101226.50;7395191;19;1413;-51
2023/12/30 00:28:14;;;;;;;;;;;;;;;19.08;54.31;101210.19;7393915;19;1830;-51
2023/12/30 00:30:43;;;;;;;;;;;;;;;19.07;54.11;101200.41;7395410;19;1034;-51
2023/12/30 00:33:11;;;;;;;;;;;;;;;19.58;52.94;101201.59;7391167;19;1855;-51
2023/12/30 00:35:40;;;;;;;;;;;;;;;19.76;52.58;101204.59;7393787;19;1373;-51
2023/12/30 00:38:10;;;;;;;;;;;;;;;20.03;52.20;101217.47;7394044;19;1842;-51
2023/12/30 00:40:39;;;;;;;;;;;;;;;20.07;51.82;101197.44;7393670;19;1267;-51
2023/12/30 00:43:07;;;;;;;;;;;;;;;20.11;51.68;101204.25;7393722;19;1526;-51
2023/12/30 00:45:35;;;;;;;;;;;;;;;20.02;51.99;101207.75;7391523;19;1880;-51
2023/12/30 00:48:04;;;;;;;;;;;;;;;20.07;51.76;101197.44;7393616;19;1487;-51
2023/12/30 00:50:32;;;;;;;;;;;;;;;20.14;51.80;101203.16;7394301;19;1736;-51
2023/12/30 00:53:01;;;;;;;;;;;;;;;20.16;51.74;101202.03;7391238;19;1848;-51
2023/12/30 00:55:31;;;;;;;;;;;;;;;19.84;52.23;101202.13;7393852;19;1404;-51
2023/12/30 00:58:00;;;;;;;;;;;;;;;19.06;53.48;101153.16;7380082;19;1756;-51
2023/12/30 01:00:28;;;;;;;;;;;;;;;19.11;54.26;101187.63;7393243;19;1023;-51
2023/12/30 01:02:56;;;;;;;;;;;;;;;19.07;54.36;101201.25;7393621;19;1864;-51
2023/12/30 01:05:25;;;;;;;;;;;;;;;19.02;54.43;101203.47;7392848;19;1941;-51
2023/12/30 01:07:53;;;;;;;;;;;;;;;19.01;54.42;101190.19;7392958;19;1441;-51
2023/12/30 01:10:21;;;;;;;;;;;;;;;19.24;53.76;101188.31;7393343;19;1736;-51
2023/12/30 01:12:52;;;;;;;;;;;;;;;19.66;52.84;101193.75;7393767;19;1752;-52
2023/12/30 01:15:21;;;;;;;;;;;;;;;19.82;52.50;101182.59;7389780;19;1869;-52
2023/12/30 01:17:49;;;;;;;;;;;;;;;19.94;52.15;101175.34;7392879;19;1305;-52
2023/12/30 01:20:17;;;;;;;;;;;;;;;19.98;52.17;101179.47;7392960;19;1729;-52
2023/12/30 01:22:46;;;;;;;;;;;;;;;19.95;52.00;101171.66;7393797;19;1210;-52
2023/12/30 01:25:14;;;;;;;;;;;;;;;20.05;51.82;101169.88;7393375;19;1678;-52
2023/12/30 01:27:42;;;;;;;;;;;;;;;20.09;51.92;101167.78;7393786;19;947;-52
2023/12/30 01:30:14;;;;;;;;;;;;;;;20.14;51.72;101161.03;7390301;19;1350;-52
2023/12/30 01:32:42;;;;;;;;;;;;;;;20.12;51.49;101163.00;7391881;19;1381;-52
2023/12/30 01:35:10;;;;;;;;;;;;;;;20.16;51.55;101169.81;7390703;19;1863;-52
2023/12/30 01:37:39;;;;;;;;;;;;;;;20.16;51.47;101155.53;7393843;19;1002;-52
2023/12/30 01:40:08;;;;;;;;;;;;;;;20.12;51.59;101152.25;7392203;19;1896;-52
2023/12/30 01:42:37;;;;;;;;;;;;;;;19.58;53.02;101172.09;7391126;19;1565;-51
2023/12/30 01:45:05;;;;;;;;;;;;;;;19.23;53.76;101151.75;7392449;19;1772;-52
2023/12/30 01:47:36;;;;;;;;;;;;;;;19.13;54.22;101158.84;7391474;19;1227;-52
2023/12/30 01:50:05;;;;;;;;;;;;;;;19.14;54.10;101161.41;7392291;19;1354;-52
2023/12/30 01:52:34;;;;;;;;;;;;;;;19.15;54.03;101156.91;7390732;19;1748;-52
2023/12/30 01:55:03;;;;;;;;;;;;;;;19.47;53.29;101146.16;7391087;19;1833;-52
2023/12/30 01:57:31;;;;;;;;;;;;;;;19.68;52.78;101146.19;7381561;19;1536;-52
2023/12/30 02:00:01;;;;;;;;;;;;;;;19.89;52.23;101139.97;7387092;19;1164;-52
2023/12/30 02:02:30;;;;;;;;;;;;;;;19.93;52.02;101153.00;7392079;19;1689;-52
2023/12/30 02:05:01;;;;;;;;;;;;;;;20.08;51.85;101148.16;7392864;19;1022;-52
2023/12/30 02:07:29;;;;;;;;;;;;;;;20.24;51.39;101151.19;7392253;19;1158;-52
2023/12/30 02:09:57;;;;;;;;;;;;;;;20.09;51.12;101103.34;7391447;19;1941;-52
2023/12/30 02:12:26;;;;;;;;;;;;;;;19.89;52.25;101134.63;7399039;19;1275;-52
2023/12/30 02:14:54;;;;;;;;;;;;;;;19.37;53.44;101145.22;7397417;19;1853;-52
2023/12/30 02:17:22;;;;;;;;;;;;;;;19.16;53.81;101146.06;7398891;19;1366;-52
2023/12/30 02:19:51;;;;;;;;;;;;;;;19.10;54.16;101141.22;7398061;19;1405;-52
2023/12/30 02:22:22;;;;;;;;;;;;;;;19.07;54.21;101139.59;7399903;19;1019;-52
2023/12/30 02:24:53;;;;;;;;;;;;;;;18.84;54.32;101108.50;7399439;19;1434;-56
2023/12/30 02:27:21;;;;;;;;;;;;;;;19.34;53.68;101130.25;7398838;19;1591;-53
2023/12/30 02:29:49;;;;;;;;;;;;;;;19.61;52.69;101137.78;7397663;19;1837;-52
2023/12/30 02:32:18;;;;;;;;;;;;;;;19.76;52.51;101141.03;7399040;19;1050;-52
2023/12/30 02:34:46;;;;;;;;;;;;;;;19.98;51.90;101134.66;7397719;19;1851;-52
2023/12/30 02:37:15;;;;;;;;;;;;;;;20.09;51.84;101141.78;7398382;19;1871;-52
2023/12/30 02:39:43;;;;;;;;;;;;;;;20.18;51.64;101132.09;7397839;19;1587;-52
2023/12/30 02:42:14;;;;;;;;;;;;;;;20.25;51.44;101146.66;7398343;19;1180;-52
2023/12/30 02:44:42;;;;;;;;;;;;;;;20.22;51.26;101110.19;7398501;19;1468;-52
2023/12/30 02:47:11;;;;;;;;;;;;;;;20.22;51.27;101133.53;7398312;19;1736;-52
2023/12/30 02:49:39;;;;;;;;;;;;;;;20.21;51.37;101135.38;7398559;19;1052;-52
2023/12/30 02:52:07;;;;;;;;;;;;;;;20.17;51.63;101139.28;7396384;19;1851;-52
2023/12/30 02:54:36;;;;;;;;;;;;;;;19.57;52.74;101130.97;7395948;19;1842;-52
2023/12/30 02:57:06;;;;;;;;;;;;;;;19.24;53.54;101124.81;7396872;19;1624;-52
2023/12/30 02:59:36;;;;;;;;;;;;;;;19.13;54.19;101132.91;7382921;19;1796;-52
2023/12/30 03:02:05;;;;;;;;;;;;;;;19.10;54.06;101124.25;7398163;19;1673;-52
2023/12/30 03:04:36;;;;;;;;;;;;;;;19.07;54.22;101128.88;7397046;19;1725;-52
2023/12/30 03:07:04;;;;;;;;;;;;;;;19.33;53.67;101125.88;7396731;19;1729;-52
2023/12/30 03:09:33;;;;;;;;;;;;;;;19.70;52.57;101130.81;7394492;19;1522;-52
2023/12/30 03:12:02;;;;;;;;;;;;;;;19.80;52.39;101120.16;7395915;19;1741;-52
2023/12/30 03:14:30;;;;;;;;;;;;;;;19.97;52.06;101121.38;7396723;19;1915;-52
2023/12/30 03:17:01;;;;;;;;;;;;;;;20.03;51.74;101121.72;7398125;19;1101;-52
2023/12/30 03:19:29;;;;;;;;;;;;;;;20.08;51.74;101121.31;7396573;19;1839;-51
2023/12/30 03:21:57;;;;;;;;;;;;;;;20.23;51.43;101121.78;7395667;19;1768;-51
2023/12/30 03:24:26;;;;;;;;;;;;;;;19.82;52.35;101128.94;7395708;19;1266;-52
2023/12/30 03:26:55;;;;;;;;;;;;;;;19.31;53.52;101140.38;7396870;19;1346;-52
2023/12/30 03:29:23;;;;;;;;;;;;;;;19.13;54.05;101132.06;7396278;19;1886;-52
2023/12/30 03:31:52;;;;;;;;;;;;;;;19.10;54.15;101143.00;7397179;19;1027;-52
2023/12/30 03:34:23;;;;;;;;;;;;;;;19.10;54.16;101140.34;7395405;19;1930;-52
2023/12/30 03:36:51;;;;;;;;;;;;;;;19.06;54.25;101140.59;7396140;19;1437;-51
2023/12/30 03:39:20;;;;;;;;;;;;;;;19.35;53.66;101140.00;7396386;19;1512;-51
2023/12/30 03:41:48;;;;;;;;;;;;;;;19.68;52.79;101143.50;7396873;19;1141;-51
2023/12/30 03:44:16;;;;;;;;;;;;;;;19.75;52.45;101130.44;7397861;19;1030;-51
2023/12/30 03:46:45;;;;;;;;;;;;;;;19.92;51.93;101137.03;7396387;19;1848;-52
2023/12/30 03:49:13;;;;;;;;;;;;;;;19.91;52.14;101122.75;7395492;19;1864;-52
2023/12/30 03:51:44;;;;;;;;;;;;;;;20.05;51.70;101135.84;7394425;19;1812;-52
2023/12/30 03:54:12;;;;;;;;;;;;;;;20.20;51.30;101144.38;7395189;19;1891;-52
2023/12/30 03:56:41;;;;;;;;;;;;;;;20.22;51.32;101142.41;7395488;19;1776;-52
2023/12/30 03:59:09;;;;;;;;;;;;;;;19.61;52.86;101158.41;7380319;19;1512;-52
2023/12/30 04:01:37;;;;;;;;;;;;;;;19.15;54.00;101148.84;7393772;19;1701;-51
2023/12/30 04:04:06;;;;;;;;;;;;;;;18.95;54.31;101148.66;7395328;19;1743;-52
2023/12/30 04:06:34;;;;;;;;;;;;;;;18.68;55.02;101141.88;7394819;19;1710;-51
2023/12/30 04:09:05;;;;;;;;;;;;;;;18.50;55.42;101156.72;7394976;19;1420;-51
2023/12/30 04:11:33;;;;;;;;;;;;;;;18.55;55.34;101149.19;7396674;19;1018;-51
2023/12/30 04:14:02;;;;;;;;;;;;;;;18.66;55.32;101145.63;7395806;19;1879;-52
2023/12/30 04:16:30;;;;;;;;;;;;;;;18.71;54.84;101154.16;7394114;19;1473;-52
2023/12/30 04:18:59;;;;;;;;;;;;;;;18.87;54.76;101153.81;7394604;19;1404;-52
2023/12/30 04:21:27;;;;;;;;;;;;;;;18.89;54.46;101151.84;7394075;19;1322;-52
2023/12/30 04:23:55;;;;;;;;;;;;;;;18.90;54.45;101164.28;7394377;19;1791;-51
2023/12/30 04:26:26;;;;;;;;;;;;;;;18.89;54.52;101162.56;7394891;19;1413;-52
2023/12/30 04:28:54;;;;;;;;;;;;;;;18.90;54.28;101164.28;7393202;19;1365;-52
2023/12/30 04:31:23;;;;;;;;;;;;;;;18.88;54.45;101158.19;7394833;19;1166;-52
2023/12/30 04:33:51;;;;;;;;;;;;;;;18.86;54.69;101152.09;7391528;19;1523;-51
2023/12/30 04:36:19;;;;;;;;;;;;;;;18.84;54.55;101154.03;7391716;19;1838;-51
2023/12/30 04:38:48;;;;;;;;;;;;;;;18.91;54.62;101165.97;7393880;19;1474;-51
2023/12/30 04:41:16;;;;;;;;;;;;;;;18.90;54.52;101163.41;7393563;19;1020;-51
2023/12/30 04:43:47;;;;;;;;;;;;;;;18.86;54.47;101157.44;7394726;19;1237;-51
2023/12/30 04:46:15;;;;;;;;;;;;;;;18.90;54.45;101161.59;7394261;19;1362;-51
2023/12/30 04:48:43;;;;;;;;;;;;;;;18.85;54.37;101147.72;7394041;19;1537;-52
2023/12/30 04:51:12;;;;;;;;;;;;;;;18.83;54.56;101147.84;7392531;19;1706;-52
2023/12/30 04:53:40;;;;;;;;;;;;;;;18.81;54.57;101148.94;7393243;19;1755;-53
2023/12/30 04:56:09;;;;;;;;;;;;;;;18.82;54.71;101150.63;7391858;19;1851;-52
2023/12/30 04:58:35;;;;;;;;;;;;;;;18.80;54.70;101166.00;7378997;19;1386;-52
2023/12/30 05:01:08;;;;;;;;;;;;;;;18.77;54.67;101163.53;7395028;19;1018;-52
2023/12/30 05:03:37;;;;;;;;;;;;;;;18.84;54.47;101159.41;7392450;19;1519;-52
2023/12/30 05:06:06;;;;;;;;;;;;;;;18.81;54.48;101154.31;7392864;19;1709;-52
2023/12/30 05:08:35;;;;;;;;;;;;;;;18.85;54.25;101145.03;7392170;19;1492;-52
2023/12/30 05:11:06;;;;;;;;;;;;;;;18.83;54.49;101141.63;7393465;19;966;-52
2023/12/30 05:13:34;;;;;;;;;;;;;;;18.84;54.34;101144.19;7392662;19;1725;-52
2023/12/30 05:16:03;;;;;;;;;;;;;;;18.86;54.46;101149.41;7392106;19;1916;-51
2023/12/30 05:18:34;;;;;;;;;;;;;;;18.79;54.45;101130.31;7392596;19;1711;-52
2023/12/30 05:21:02;;;;;;;;;;;;;;;18.80;54.45;101142.75;7391128;19;1378;-51
2023/12/30 05:23:30;;;;;;;;;;;;;;;18.88;54.28;101145.66;7391599;19;1373;-51
2023/12/30 05:25:59;;;;;;;;;;;;;;;18.77;54.68;101152.81;7394240;19;1117;-51
2023/12/30 05:28:27;;;;;;;;;;;;;;;18.74;54.61;101158.41;7392809;19;1944;-52
2023/12/30 05:30:55;;;;;;;;;;;;;;;18.78;54.48;101154.50;7393206;19;1516;-51
2023/12/30 05:33:24;;;;;;;;;;;;;;;18.79;54.37;101156.22;7390787;19;1350;-52
2023/12/30 05:35:54;;;;;;;;;;;;;;;18.76;54.68;101156.47;7391628;19;1852;-52
2023/12/30 05:38:23;;;;;;;;;;;;;;;18.71;54.75;101162.19;7393101;19;1756;-52
2023/12/30 05:40:51;;;;;;;;;;;;;;;18.77;54.69;101174.25;7393378;19;1015;-51
2023/12/30 05:43:19;;;;;;;;;;;;;;;18.76;54.61;101162.69;7389781;19;1191;-52
2023/12/30 05:45:48;;;;;;;;;;;;;;;18.79;54.43;101167.81;7391365;19;1717;-52
2023/12/30 05:48:16;;;;;;;;;;;;;;;18.81;54.35;101175.75;7391670;19;1650;-51
2023/12/30 05:50:44;;;;;;;;;;;;;;;18.82;54.34;101174.75;7390762;19;1658;-51
2023/12/30 05:53:15;;;;;;;;;;;;;;;18.77;54.52;101168.91;7390253;19;1388;-51
2023/12/30 05:55:43;;;;;;;;;;;;;;;18.83;54.35;101165.75;7390606;19;1843;-52
2023/12/30 05:58:12;;;;;;;;;;;;;;;18.81;54.25;101173.06;7391586;19;1728;-52
2023/12/30 06:00:40;;;;;;;;;;;;;;;18.78;54.33;101170.59;7376961;19;1491;-52
2023/12/30 06:03:09;;;;;;;;;;;;;;;18.75;54.62;101171.69;7392463;19;910;-52
2023/12/30 06:05:37;;;;;;;;;;;;;;;18.81;54.63;101176.59;7392811;19;1013;-52
2023/12/30 06:08:06;;;;;;;;;;;;;;;18.80;54.54;101171.34;7391215;19;1371;-52
2023/12/30 06:10:37;;;;;;;;;;;;;;;18.82;54.52;101162.22;7391650;19;1855;-52
2023/12/30 06:13:05;;;;;;;;;;;;;;;18.83;54.35;101165.75;7389348;19;1734;-52
2023/12/30 06:15:34;;;;;;;;;;;;;;;18.83;54.46;101173.78;7389563;19;1854;-52
2023/12/30 06:18:02;;;;;;;;;;;;;;;18.80;54.41;101160.63;7389437;19;1294;-52
2023/12/30 06:20:30;;;;;;;;;;;;;;;18.79;54.51;101172.31;7391336;19;1647;-52
2023/12/30 06:22:59;;;;;;;;;;;;;;;18.80;54.16;101163.31;7390454;19;1684;-52
2023/12/30 06:25:27;;;;;;;;;;;;;;;18.76;54.55;101162.69;7390533;19;1408;-52
2023/12/30 06:27:58;;;;;;;;;;;;;;;18.79;54.43;101150.88;7391630;19;1803;-52
2023/12/30 06:30:26;;;;;;;;;;;;;;;18.86;54.35;101174.41;7391837;19;1833;-52
2023/12/30 06:32:54;;;;;;;;;;;;;;;18.84;54.22;101159.41;7387475;19;1910;-52
2023/12/30 06:35:23;;;;;;;;;;;;;;;18.85;54.14;101170.00;7389765;19;1872;-52
2023/12/30 06:37:51;;;;;;;;;;;;;;;18.87;54.29;101159.16;7391489;19;1686;-52
2023/12/30 06:40:19;;;;;;;;;;;;;;;18.88;54.29;101176.97;7392192;19;1018;-52
2023/12/30 06:42:48;;;;;;;;;;;;;;;18.91;53.98;101165.13;7389180;19;1257;-52
2023/12/30 06:45:18;;;;;;;;;;;;;;;18.83;54.20;101189.88;7391155;19;1420;-52
2023/12/30 06:47:47;;;;;;;;;;;;;;;18.90;54.25;101190.22;7390933;19;1238;-52
2023/12/30 06:50:15;;;;;;;;;;;;;;;18.95;54.09;101199.59;7391473;19;1759;-52
2023/12/30 06:52:44;;;;;;;;;;;;;;;18.90;54.15;101190.22;7388497;19;1737;-52
2023/12/30 06:55:13;;;;;;;;;;;;;;;18.88;54.17;101185.84;7391142;19;1849;-52
2023/12/30 06:57:42;;;;;;;;;;;;;;;18.87;54.36;101185.97;7390232;19;1513;-54
2023/12/30 07:00:10;;;;;;;;;;;;;;;18.95;54.08;101179.97;7383173;19;1835;-52
2023/12/30 07:02:41;;;;;;;;;;;;;;;18.89;54.14;101189.38;7397020;19;1785;-52
2023/12/30 07:05:10;;;;;;;;;;;;;;;18.96;54.01;101184.34;7397288;19;1453;-52
2023/12/30 07:07:38;;;;;;;;;;;;;;;18.94;54.17;101184.50;7397349;19;1744;-52
2023/12/30 07:10:07;;;;;;;;;;;;;;;18.94;54.11;101192.53;7396467;19;1283;-52
2023/12/30 07:12:35;;;;;;;;;;;;;;;18.95;54.07;101199.59;7396142;19;1802;-52
2023/12/30 07:15:04;;;;;;;;;;;;;;;18.94;54.01;101184.50;7396964;19;1843;-52
2023/12/30 07:17:32;;;;;;;;;;;;;;;19.01;54.01;101196.41;7396823;19;1435;-52
2023/12/30 07:20:03;;;;;;;;;;;;;;;19.02;54.06;101194.56;7397194;19;1207;-52
2023/12/30 07:22:32;;;;;;;;;;;;;;;18.98;54.14;101190.44;7397125;19;1748;-52
2023/12/30 07:25:00;;;;;;;;;;;;;;;19.00;53.98;101189.34;7398094;19;1109;-52
2023/12/30 07:27:28;;;;;;;;;;;;;;;19.01;54.01;101192.88;7395121;19;1769;-52
2023/12/30 07:29:57;;;;;;;;;;;;;;;19.00;54.05;101197.41;7395255;19;1669;-53
2023/12/30 07:32:26;;;;;;;;;;;;;;;18.98;54.12;101203.84;7397599;19;1508;-52
2023/12/30 07:34:54;;;;;;;;;;;;;;;19.01;53.95;101193.72;7397030;19;1146;-52
2023/12/30 07:37:25;;;;;;;;;;;;;;;19.13;54.04;101186.50;7394812;19;2016;-52
2023/12/30 07:39:53;;;;;;;;;;;;;;;19.07;53.89;101197.72;7396143;19;1505;-52
2023/12/30 07:42:22;;;;;;;;;;;;;;;19.12;53.92;101205.38;7394039;19;1530;-52
2023/12/30 07:44:50;;;;;;;;;;;;;;;19.13;53.99;101196.38;7396115;19;1674;-52
2023/12/30 07:47:18;;;;;;;;;;;;;;;19.12;53.83;101197.34;7396837;19;1535;-52
2023/12/30 07:49:47;;;;;;;;;;;;;;;19.08;53.90;101197.63;7397566;19;1105;-52
2023/12/30 07:52:16;;;;;;;;;;;;;;;19.08;53.93;101205.66;7395430;19;2033;-52
2023/12/30 07:54:47;;;;;;;;;;;;;;;19.14;53.85;101190.03;7395557;19;1480;-52
2023/12/30 07:57:16;;;;;;;;;;;;;;;19.22;53.87;101195.66;7394119;19;1868;-52
2023/12/30 07:59:44;;;;;;;;;;;;;;;19.19;53.78;101198.56;7380766;19;1761;-52
2023/12/30 08:02:12;;;;;;;;;;;;;;;18.96;53.77;101162.91;7396299;19;1795;-52
2023/12/30 08:04:44;;;;;;;;;;;;;;;19.27;53.89;101214.88;7395039;19;1386;-52
2023/12/30 08:07:12;;;;;;;;;;;;;;;19.24;53.68;101225.84;7395102;19;1833;-52
2023/12/30 08:09:40;;;;;;;;;;;;;;;19.20;53.81;101219.00;7394594;19;1532;-52
2023/12/30 08:12:11;;;;;;;;;;;;;;;19.23;53.70;101243.75;7396617;19;1010;-52
2023/12/30 08:14:40;;;;;;;;;;;;;;;19.25;53.56;101225.72;7395320;19;1930;-52
2023/12/30 08:17:08;;;;;;;;;;;;;;;19.27;53.89;101241.69;7393507;19;1849;-52
2023/12/30 08:19:37;;;;;;;;;;;;;;;19.30;53.55;101227.16;7394387;19;1855;-52
2023/12/30 08:22:05;;;;;;;;;;;;;;;19.07;53.51;101193.22;7395227;19;1492;-52
2023/12/30 08:24:34;;;;;;;;;;;;;;;19.32;53.58;101238.63;7394375;19;1127;-52
2023/12/30 08:27:02;;;;;;;;;;;;;;;19.29;53.58;101226.31;7392461;19;1776;-52
2023/12/30 08:29:33;;;;;;;;;;;;;;;19.32;53.50;101227.88;7392906;19;1844;-52
2023/12/30 08:32:01;;;;;;;;;;;;;;;19.32;53.50;101226.06;7394899;19;1526;-52
2023/12/30 08:34:30;;;;;;;;;;;;;;;19.39;53.67;101219.22;7394755;19;971;-52
2023/12/30 08:36:58;;;;;;;;;;;;;;;19.39;53.48;101224.56;7390540;19;1878;-52
2023/12/30 08:39:26;;;;;;;;;;;;;;;19.42;53.34;101232.38;7394661;19;1780;-52
2023/12/30 08:41:55;;;;;;;;;;;;;;;19.52;53.25;101240.53;7394110;19;1198;-52
2023/12/30 08:44:23;;;;;;;;;;;;;;;19.48;53.35;101234.56;7394999;19;1050;-52
2023/12/30 08:46:54;;;;;;;;;;;;;;;19.61;53.30;101233.53;7391539;19;1570;-52
2023/12/30 08:49:22;;;;;;;;;;;;;;;19.57;53.37;101229.41;7393975;19;1772;-52
2023/12/30 08:51:50;;;;;;;;;;;;;;;19.56;53.38;101225.03;7389567;19;1832;-52
2023/12/30 08:54:19;;;;;;;;;;;;;;;18.52;50.82;101219.06;7392560;19;1219;-52
2023/12/30 08:56:47;;;;;;;;;;;;;;;18.82;51.52;101210.47;7391559;19;1841;-52
2023/12/30 08:59:15;;;;;;;;;;;;;;;19.26;51.41;101229.25;7381556;19;1290;-52
2023/12/30 09:01:44;;;;;;;;;;;;;;;19.51;51.16;101205.75;7391325;19;1571;-52
2023/12/30 09:04:15;;;;;;;;;;;;;;;19.70;51.27;101219.34;7391790;19;1243;-52
2023/12/30 09:06:43;;;;;;;;;;;;;;;19.71;51.24;101191.56;7387172;19;1811;-52
2023/12/30 09:09:11;;;;;;;;;;;;;;;19.82;51.05;101210.28;7388237;19;1618;-51
2023/12/30 09:11:42;;;;;;;;;;;;;;;19.81;50.94;101192.47;7394616;19;1015;-51
2023/12/30 09:14:11;;;;;;;;;;;;;;;19.89;51.04;101199.03;7390669;19;1825;-52
2023/12/30 09:16:39;;;;;;;;;;;;;;;19.95;50.99;101199.34;7392624;19;1886;-51
2023/12/30 09:19:07;;;;;;;;;;;;;;;19.99;50.92;101182.00;7389222;19;1504;-52
2023/12/30 09:21:38;;;;;;;;;;;;;;;20.04;51.14;101179.78;7392217;19;1725;-52
2023/12/30 09:24:07;;;;;;;;;;;;;;;20.06;51.00;101185.84;7392285;19;1417;-52
2023/12/30 09:26:35;;;;;;;;;;;;;;;19.74;51.74;101185.09;7393064;19;1746;-52
2023/12/30 09:29:04;;;;;;;;;;;;;;;19.43;52.76;101188.47;7393039;19;948;-52
2023/12/30 09:31:32;;;;;;;;;;;;;;;19.12;53.41;101171.41;7391945;19;1820;-52
2023/12/30 09:34:00;;;;;;;;;;;;;;;18.94;53.86;101171.09;7393175;19;1814;-52
2023/12/30 09:36:29;;;;;;;;;;;;;;;19.00;53.73;101175.94;7391021;19;1853;-52
2023/12/30 09:39:00;;;;;;;;;;;;;;;19.39;52.72;101162.88;7391772;19;1398;-50
2023/12/30 09:41:31;;;;;;;;;;;;;;;19.61;52.50;101175.34;7392266;19;1022;-50
2023/12/30 09:44:02;;;;;;;;;;;;;;;19.28;53.04;101169.16;7392447;19;1827;-50
2023/12/30 09:46:31;;;;;;;;;;;;;;;19.14;53.63;101165.91;7391135;19;1808;-51
2023/12/30 09:49:00;;;;;;;;;;;;;;;18.99;53.86;101166.19;7391961;19;1194;-50
2023/12/30 09:51:28;;;;;;;;;;;;;;;18.95;54.26;101162.06;7390657;19;1818;-50
2023/12/30 09:53:57;;;;;;;;;;;;;;;19.25;53.58;101168.56;7391027;19;1964;-51
2023/12/30 09:56:28;;;;;;;;;;;;;;;19.55;52.78;101172.34;7390612;19;1870;-51
2023/12/30 09:58:56;;;;;;;;;;;;;;;19.88;51.94;101160.59;7390822;19;1317;-50
2023/12/30 10:01:25;;;;;;;;;;;;;;;19.98;51.80;101160.66;7377606;19;1562;-51
2023/12/30 10:03:53;;;;;;;;;;;;;;;20.02;51.83;101162.09;7392372;19;1740;-51
2023/12/30 10:06:23;;;;;;;;;;;;;;;20.08;51.59;101153.53;7390705;19;1495;-51
2023/12/30 10:08:52;;;;;;;;;;;;;;;20.07;51.60;101154.47;7391811;19;1448;-51
2023/12/30 10:11:20;;;;;;;;;;;;;;;20.05;51.61;101151.09;7392363;19;1113;-51
2023/12/30 10:13:54;;;;;;;;;;;;;;;20.15;51.63;101151.13;7391514;19;1963;-51
2023/12/30 10:16:22;;;;;;;;;;;;;;;20.06;51.63;101150.13;7390906;19;1844;-52
2023/12/30 10:18:50;;;;;;;;;;;;;;;20.08;51.70;101180.38;7391708;19;1735;-51
2023/12/30 10:21:19;;;;;;;;;;;;;;;20.09;51.67;101155.19;7391213;19;1439;-51
2023/12/30 10:23:51;;;;;;;;;;;;;;;20.09;51.62;101140.94;7391168;19;1745;-52
2023/12/30 10:26:20;;;;;;;;;;;;;;;20.11;51.55;101150.56;7390840;19;1484;-51
2023/12/30 10:28:51;;;;;;;;;;;;;;;20.08;51.82;101139.25;7390114;19;1674;-51
2023/12/30 10:31:19;;;;;;;;;;;;;;;20.05;51.77;101133.16;7391504;19;1243;-52
2023/12/30 10:33:49;;;;;;;;;;;;;;;20.13;51.82;101142.38;7396736;19;1421;-52
2023/12/30 10:36:18;;;;;;;;;;;;;;;20.14;51.91;101144.94;7397950;19;1880;-51
2023/12/30 10:38:47;;;;;;;;;;;;;;;20.16;51.80;101147.50;7399042;19;1846;-51
2023/12/30 10:41:15;;;;;;;;;;;;;;;20.09;51.78;101133.72;7400028;19;978;-51
2023/12/30 10:43:43;;;;;;;;;;;;;;;20.11;52.03;101139.81;7397462;19;1825;-51
2023/12/30 10:46:15;;;;;;;;;;;;;;;20.12;51.82;101129.94;7397481;19;1298;-51
2023/12/30 10:48:49;;;;;;;;;;;;;;;20.16;52.00;101140.28;7398327;19;1733;-51
2023/12/30 10:51:18;;;;;;;;;;;;;;;20.10;51.96;101130.06;7397635;19;1302;-51
2023/12/30 10:53:47;;;;;;;;;;;;;;;20.11;51.86;101096.84;7397880;19;1768;-52
2023/12/30 10:56:20;;;;;;;;;;;;;;;20.10;52.21;101122.00;7397068;19;1847;-53
2023/12/30 10:58:49;;;;;;;;;;;;;;;20.08;52.13;101121.31;7396825;19;1371;-52
2023/12/30 11:01:20;;;;;;;;;;;;;;;20.10;52.09;101126.53;7383737;19;1212;-51
2023/12/30 11:03:49;;;;;;;;;;;;;;;20.11;52.00;101104.91;7398186;19;1480;-51
2023/12/30 11:06:21;;;;;;;;;;;;;;;20.17;52.06;101123.16;7396507;19;1177;-51
2023/12/30 11:08:49;;;;;;;;;;;;;;;20.11;52.28;101112.97;7396791;19;1417;-51
2023/12/30 11:11:19;;;;;;;;;;;;;;;20.07;52.12;101111.53;7398014;19;1121;-51
2023/12/30 11:13:48;;;;;;;;;;;;;;;20.10;52.11;101100.53;7396726;19;1500;-51
2023/12/30 11:16:17;;;;;;;;;;;;;;;19.76;52.96;101098.09;7396884;19;1716;-51
2023/12/30 11:18:53;;;;;;;;;;;;;;;19.42;53.95;101119.72;7395735;19;1822;-51
2023/12/30 11:21:37;;;;;;;;;;;;;;;19.25;54.44;101105.06;7394739;19;1567;-51
2023/12/30 11:24:07;;;;;;;;;;;;;;;19.13;54.72;101110.59;7396093;19;1405;-51
2023/12/30 11:26:34;;;;;;;;;;;;;;;19.00;54.84;101100.03;7396854;19;1728;-51
2023/12/30 11:29:03;;;;;;;;;;;;;;;19.29;54.43;101105.66;7396289;19;1765;-51
2023/12/30 11:31:32;;;;;;;;;;;;;;;19.50;53.72;101086.91;7395532;19;1523;-51
2023/12/30 11:34:04;;;;;;;;;;;;;;;19.38;53.99;101096.84;7396710;19;1717;-51
2023/12/30 11:36:33;;;;;;;;;;;;;;;19.18;54.29;101103.00;7394185;19;1842;-52
2023/12/30 11:39:03;;;;;;;;;;;;;;;19.06;54.79;101094.19;7396447;19;1306;-51
2023/12/30 11:41:32;;;;;;;;;;;;;;;18.98;54.74;101092.16;7397583;19;1082;-51
2023/12/30 11:44:02;;;;;;;;;;;;;;;19.04;54.79;101091.63;7395067;19;1837;-51
2023/12/30 11:46:30;;;;;;;;;;;;;;;19.33;54.03;101074.91;7395804;19;1799;-52
2023/12/30 11:48:59;;;;;;;;;;;;;;;19.38;54.00;101096.84;7396831;19;1373;-51
2023/12/30 11:51:31;;;;;;;;;;;;;;;19.25;54.39;101077.41;7394467;19;1417;-51
2023/12/30 11:54:00;;;;;;;;;;;;;;;19.07;54.53;101075.28;7396237;19;1325;-51
2023/12/30 11:56:28;;;;;;;;;;;;;;;18.99;54.99;101082.28;7395838;19;1251;-51
2023/12/30 11:58:57;;;;;;;;;;;;;;;18.90;55.26;101081.22;7393232;19;1833;-51
2023/12/30 12:01:25;;;;;;;;;;;;;;;19.24;54.29;101076.56;7379757;19;1637;-51
2023/12/30 12:03:54;;;;;;;;;;;;;;;19.38;53.79;101056.63;7395843;19;1450;-51
2023/12/30 12:06:22;;;;;;;;;;;;;;;19.25;54.47;101080.06;7395237;19;1639;-51
2023/12/30 12:08:53;;;;;;;;;;;;;;;19.00;54.72;101067.88;7395076;19;1381;-51
2023/12/30 12:11:21;;;;;;;;;;;;;;;18.89;55.09;101058.06;7396065;19;1137;-52
2023/12/30 12:13:50;;;;;;;;;;;;;;;18.82;55.42;101075.63;7395707;19;1839;-52
2023/12/30 12:16:18;;;;;;;;;;;;;;;19.02;54.82;101066.78;7396002;19;1799;-51
2023/12/30 12:18:47;;;;;;;;;;;;;;;19.28;54.45;101061.91;7392784;19;1857;-52
2023/12/30 12:21:16;;;;;;;;;;;;;;;19.29;54.24;101065.44;7394545;19;1689;-51
2023/12/30 12:23:44;;;;;;;;;;;;;;;19.08;54.59;101063.59;7394476;19;1831;-51
2023/12/30 12:26:16;;;;;;;;;;;;;;;18.87;54.82;101063.53;7395046;19;1735;-51
2023/12/30 12:28:44;;;;;;;;;;;;;;;18.72;55.48;101059.44;7392767;19;1421;-51
2023/12/30 12:31:15;;;;;;;;;;;;;;;18.80;55.63;101061.50;7395439;19;1057;-52
2023/12/30 12:33:44;;;;;;;;;;;;;;;19.11;54.81;101061.63;7394815;19;1829;-52
2023/12/30 12:36:12;;;;;;;;;;;;;;;19.13;54.34;101057.84;7393129;19;1753;-51
2023/12/30 12:38:40;;;;;;;;;;;;;;;18.99;53.85;101059.00;7388431;19;1841;-52
2023/12/30 12:41:08;;;;;;;;;;;;;;;18.74;53.70;101053.94;7392855;19;1465;-52
2023/12/30 12:43:39;;;;;;;;;;;;;;;19.04;53.22;101055.94;7392836;19;1478;-53
2023/12/30 12:46:08;;;;;;;;;;;;;;;19.47;52.48;101039.72;7391517;19;1585;-54
2023/12/30 12:48:37;;;;;;;;;;;;;;;19.84;52.07;101041.94;7391262;19;1886;-51
2023/12/30 12:51:06;;;;;;;;;;;;;;;19.77;52.19;101050.66;7392254;19;1191;-53
2023/12/30 12:53:34;;;;;;;;;;;;;;;19.43;53.12;101053.53;7392873;19;1563;-52
2023/12/30 12:56:04;;;;;;;;;;;;;;;19.44;53.34;101044.53;7388365;19;1371;-52